CEFAS Endeavour — VQHF3 — position and weather

sailwx.info

Track history (hours):
 
Tides and Currents Weather Stations Pressure Air Temp Water Temp Dewpoint Dewpoint Depression Visibility Wind Speed Wind Dir Waves Ship Positions

Oceanographic research ship CEFAS Endeavour (UK)

Detailed information on ship capabilities available from University of Delaware's Ocean Information Center.

Last reported at 2014-Jul-30 02:32 UTC. Time now 2014-Jul-30 03:04 UTC.
Position N 51°58' E 001°33'.

Length 74 m; draft 6.3 m.

Type: Ship. MMSI: 235005270.

Date/timePositionNaut miles runAvg speedWind from/ knotsBaromVisibWave heightAir tempDewpointWater temp
2014-Jul-30 02:32N 51°58' E 001°33'0 0.1
2014-Jul-30 01:32N 51°58' E 001°33'0 0.0
2014-Jul-30 00:32N 51°58' E 001°33'0 0.0
2014-Jul-29 23:32N 51°58' E 001°33'0 0.0
2014-Jul-29 22:32N 51°58' E 001°33'0 0.0
2014-Jul-29 21:32N 51°58' E 001°33'0 0.0
2014-Jul-29 20:32N 51°58' E 001°33'0 0.0
2014-Jul-29 19:32N 51°58' E 001°33'7 6.8
2014-Jul-29 18:33N 52°02' E 001°42'1211.8
2014-Jul-29 17:33N 51°59' E 002°01'1411.8
2014-Jul-29 16:23N 51°51' E 002°19'1012.5
2014-Jul-29 15:33N 51°44' E 002°32'1211.7
2014-Jul-29 14:30N 51°37' E 002°47'3 3.0
2014-Jul-29 13:24N 51°34' E 002°46'4 4.0
2014-Jul-29 12:20N 51°30' E 002°43'5 6.3
2014-Jul-29 11:30N 51°30' E 002°35'4 4.1
2014-Jul-29 10:32N 51°28' E 002°41'2 1.7
2014-Jul-29 09:32N 51°26' E 002°41'3 3.5
2014-Jul-29 08:32N 51°23' E 002°42'4 4.1
2014-Jul-29 07:33N 51°20' E 002°38'1 1.4
2014-Jul-29 06:33N 51°19' E 002°37'3 3.4
2014-Jul-29 05:33N 51°21' E 002°33'4 3.9
2014-Jul-29 04:30N 51°21' E 002°27'5 4.7
2014-Jul-29 03:29N 51°19' E 002°20'4 4.8
2014-Jul-29 02:33N 51°19' E 002°13'6 5.7
2014-Jul-29 01:26N 51°22' E 002°04'5 5.1
2014-Jul-29 00:32N 51°24' E 001°58'5 5.3
2014-Jul-28 23:33N 51°28' E 001°52'7 6.7
2014-Jul-28 22:33N 51°34' E 001°48'7 7.2
2014-Jul-28 21:33N 51°41' E 001°45'7 7.3
2014-Jul-28 20:33N 51°48' E 001°43'6 5.6
2014-Jul-28 19:33N 51°49' E 001°34'3 2.9
2014-Jul-28 18:34N 51°49' E 001°29'6 6.1
2014-Jul-28 17:33N 51°45' E 001°22'1 1.0
2014-Jul-28 16:33N 51°44' E 001°21'7 7.2
2014-Jul-28 15:33N 51°47' E 001°31'5 4.7
2014-Jul-28 14:33N 51°43' E 001°29'8 8.4
2014-Jul-28 13:33N 51°36' E 001°21'6 5.5
2014-Jul-28 12:33N 51°30' E 001°21'2 1.8
2014-Jul-28 11:33N 51°29' E 001°21'1 0.8
2014-Jul-28 10:33N 51°28' E 001°21'1212.4
2014-Jul-28 09:33N 51°29' E 001°41'1 1.2
2014-Jul-28 08:33N 51°27' E 001°41'6 6.4
2014-Jul-28 07:33N 51°21' E 001°44'5 4.9
2014-Jul-28 06:33N 51°16' E 001°44'5 4.7
2014-Jul-28 05:33N 51°14' E 001°37'2 2.4
2014-Jul-28 04:33N 51°17' E 001°37'0 0.1
2014-Jul-28 03:34N 51°17' E 001°37'0 0.0
2014-Jul-28 02:33N 51°17' E 001°37'0 0.1
2014-Jul-28 01:33N 51°17' E 001°37'0 0.1
2014-Jul-28 00:33N 51°17' E 001°37'0 0.0
2014-Jul-27 23:33N 51°17' E 001°37'0 0.1
2014-Jul-27 22:34N 51°17' E 001°37'0 0.0
2014-Jul-27 21:33N 51°17' E 001°37'0 0.1
2014-Jul-27 20:33N 51°17' E 001°37'7 7.4
2014-Jul-27 19:33N 51°10' E 001°32'9 9.1
2014-Jul-27 18:33N 51°04' E 001°21'9 4.0
2014-Jul-27 16:18N 50°59' E 001°10'4 2.5
2014-Jul-27 14:33N 50°59' E 001°03'1 0.7
2014-Jul-27 13:33N 50°59' E 001°04'10 2.9
2014-Jul-27 10:07N 50°52' E 000°53'3 3.7
2014-Jul-27 09:12N 50°53' E 000°48'3 4.7
2014-Jul-27 08:33N 50°53' E 000°53'1 0.7
2014-Jul-27 07:25N 50°53' E 000°54'1 1.6
2014-Jul-27 06:33N 50°52' E 000°56'2 1.7
2014-Jul-27 05:32N 50°51' E 000°55'4 3.9
2014-Jul-27 04:32N 50°52' E 000°50'0 0.0
2014-Jul-27 03:32N 50°52' E 000°50'0 0.0
2014-Jul-27 02:32N 50°52' E 000°50'0 0.0
2014-Jul-27 01:32N 50°52' E 000°50'0 0.0
2014-Jul-27 00:32N 50°52' E 000°50'0 0.0
2014-Jul-26 23:29N 50°52' E 000°50'0 0.0
2014-Jul-26 22:32N 50°52' E 000°50'0 0.0
2014-Jul-26 21:32N 50°52' E 000°50'0 0.0
2014-Jul-26 20:32N 50°52' E 000°50'0 0.0
2014-Jul-26 19:29N 50°52' E 000°50'0 0.0
2014-Jul-26 18:32N 50°52' E 000°50'0 0.0
2014-Jul-26 17:32N 50°52' E 000°50'2 2.0
2014-Jul-26 16:33N 50°50' E 000°50'3 2.7
2014-Jul-26 15:33N 50°52' E 000°47'4 3.6
2014-Jul-26 14:33N 50°50' E 000°52'2 2.5
2014-Jul-26 13:33N 50°48' E 000°52'4 3.5
2014-Jul-26 12:33N 50°45' E 000°48'3 2.8
2014-Jul-26 11:24N 50°48' E 000°51'5 6.2
2014-Jul-26 10:33N 50°45' E 000°44'8 7.8
2014-Jul-26 09:33N 50°41' E 000°34'3 3.3
2014-Jul-26 08:33N 50°43' E 000°37'3 3.4
2014-Jul-26 07:33N 50°45' E 000°33'2 1.9
2014-Jul-26 06:33N 50°47' E 000°34'2 1.8
2014-Jul-26 05:33N 50°49' E 000°32'1 0.5
2014-Jul-26 04:33N 50°48' E 000°32'0 0.0
2014-Jul-26 03:33N 50°48' E 000°32'0 0.0
2014-Jul-26 02:33N 50°48' E 000°32'0 0.0
2014-Jul-26 01:33N 50°48' E 000°32'0 0.0
2014-Jul-26 00:33N 50°48' E 000°32'0 0.0
2014-Jul-25 23:32N 50°48' E 000°32'0 0.0
2014-Jul-25 22:33N 50°48' E 000°32'0 0.1
2014-Jul-25 21:32N 50°48' E 000°32'0 0.0
2014-Jul-25 20:32N 50°48' E 000°32'0 0.0
2014-Jul-25 19:32N 50°48' E 000°32'0 0.0
2014-Jul-25 18:32N 50°48' E 000°32'0 0.0
2014-Jul-25 17:33N 50°48' E 000°32'2 1.9
2014-Jul-25 16:34N 50°47' E 000°31'6 5.9
2014-Jul-25 15:33N 50°43' E 000°24'4 3.6
2014-Jul-25 14:33N 50°42' E 000°18'7 6.9
2014-Jul-25 13:34N 50°38' E 000°09'14 2.3
2014-Jul-25 07:17N 50°46' W 000°09'2 3.2
2014-Jul-25 06:33N 50°47' W 000°12'3 3.0
2014-Jul-25 05:30N 50°46' W 000°17'1 0.7
2014-Jul-25 04:30N 50°46' W 000°16'0 0.0
2014-Jul-25 03:30N 50°46' W 000°16'0 0.0
2014-Jul-25 02:30N 50°46' W 000°16'0 0.0
2014-Jul-25 01:33N 50°46' W 000°16'0 0.0
2014-Jul-25 00:33N 50°46' W 000°16'0 0.0
2014-Jul-24 23:33N 50°46' W 000°16'0 0.0
2014-Jul-24 22:33N 50°46' W 000°16'0 0.0
2014-Jul-24 21:33N 50°46' W 000°16'0 0.0
2014-Jul-24 20:30N 50°46' W 000°16'8 9.0
2014-Jul-24 19:33N 50°38' W 000°22'1311.2
2014-Jul-24 18:25N 50°27' W 000°31'0 0.4
2014-Jul-24 17:32N 50°27' W 000°31'1010.0
2014-Jul-24 16:29N 50°36' W 000°23'8 8.5
2014-Jul-24 15:33N 50°44' W 000°19'6 6.2
2014-Jul-24 14:33N 50°42' W 000°28'4 4.4
2014-Jul-24 13:33N 50°40' W 000°34'2 2.2
2014-Jul-24 12:33N 50°40' W 000°38'2 2.2
2014-Jul-24 11:33N 50°38' W 000°37'3 3.3
2014-Jul-24 10:33N 50°35' W 000°33'4 4.1
2014-Jul-24 09:33N 50°35' W 000°40'5 5.5
2014-Jul-24 08:33N 50°37' W 000°47'4 4.1
2014-Jul-24 07:33N 50°39' W 000°53'3 3.4
2014-Jul-24 06:33N 50°42' W 000°53'2 1.5
2014-Jul-24 05:33N 50°43' W 000°55'2 2.2
2014-Jul-24 04:33N 50°41' W 000°55'5 4.8
2014-Jul-24 03:33N 50°37' W 001°00'4 4.0
2014-Jul-24 02:33N 50°36' W 001°06'9 4.4
2014-Jul-24 00:33N 50°33' W 001°19'22 4.3
2014-Jul-23 19:33N 50°36' W 001°52'2 1.7
2014-Jul-23 18:34N 50°37' W 001°50'0 0.0
2014-Jul-23 13:33N 50°37' W 001°50'5 5.0
2014-Jul-23 12:33N 50°40' W 001°43'1 1.3
2014-Jul-23 11:32N 50°39' W 001°45'2 1.8
2014-Jul-23 10:33N 50°40' W 001°43'13 4.0
2014-Jul-23 07:24N 50°35' W 001°25'1 0.5
2014-Jul-23 06:20N 50°35' W 001°24'0 0.1
2014-Jul-23 01:11N 50°35' W 001°24'0 0.0
2014-Jul-23 00:29N 50°35' W 001°24'1 0.1
2014-Jul-22 16:33N 50°34' W 001°24'58 3.2
2014-Jul-21 22:33N 49°36' W 001°10'2 0.8
2014-Jul-21 19:25N 49°34' W 001°09'2 0.6
2014-Jul-21 15:31N 49°33' W 001°12'4 4.0
2014-Jul-21 14:34N 49°34' W 001°07'5 4.7
2014-Jul-21 13:33N 49°38' W 001°03'19 3.2
2014-Jul-21 07:34N 49°24' W 000°43'3 3.5
2014-Jul-21 06:34N 49°26' W 000°40'5 5.2
2014-Jul-21 05:33N 49°25' W 000°32'7 6.5
2014-Jul-21 04:33N 49°23' W 000°22'1 0.9
2014-Jul-21 03:18N 49°24' W 000°23'0 0.0
2014-Jul-21 02:30N 49°24' W 000°23'0 0.0
2014-Jul-21 01:30N 49°24' W 000°23'0 0.0
2014-Jul-21 00:24N 49°24' W 000°23'0 0.1
2014-Jul-20 23:30N 49°24' W 000°23'0 0.1
2014-Jul-20 22:30N 49°24' W 000°23'0 0.1
2014-Jul-20 21:30N 49°24' W 000°23'0 0.1
2014-Jul-20 20:33N 49°24' W 000°23'5 5.5
2014-Jul-20 19:33N 49°24' W 000°15'7 7.5
2014-Jul-20 18:33N 49°25' W 000°03'4 3.7
2014-Jul-20 17:33N 49°29' W 000°05'6 6.4
2014-Jul-20 16:33N 49°35' W 000°02'3 3.0
2014-Jul-20 15:33N 49°38' W 000°00'4 4.4
2014-Jul-20 14:33N 49°34' W 000°04'2 2.0
2014-Jul-20 13:33N 49°35' W 000°01'3 3.3
2014-Jul-20 12:33N 49°36' E 000°04'9 8.6
2014-Jul-20 11:33N 49°45' E 000°04'  
Track history (hours):
 
Tides and Currents Weather Stations Pressure Air Temp Water Temp Dewpoint Dewpoint Depression Visibility Wind Speed Wind Dir Waves Ship Positions

Oceanographic research ship CEFAS Endeavour (UK)

Detailed information on ship capabilities available from University of Delaware's Ocean Information Center.

Last reported at 2014-Jul-30 02:32 UTC. Time now 2014-Jul-30 03:04 UTC.
Position N 51°58' E 001°33'.

Length 74 m; draft 6.3 m.

Type: Ship. MMSI: 235005270.

Date/timePositionNaut miles runAvg speedWind from/ knotsBaromVisibWave heightAir tempDewpointWater temp
2014-Jul-30 02:32N 51°58' E 001°33'0 0.1
2014-Jul-30 01:32N 51°58' E 001°33'0 0.0
2014-Jul-30 00:32N 51°58' E 001°33'0 0.0
2014-Jul-29 23:32N 51°58' E 001°33'0 0.0
2014-Jul-29 22:32N 51°58' E 001°33'0 0.0
2014-Jul-29 21:32N 51°58' E 001°33'0 0.0
2014-Jul-29 20:32N 51°58' E 001°33'0 0.0
2014-Jul-29 19:32N 51°58' E 001°33'7 6.8
2014-Jul-29 18:33N 52°02' E 001°42'1211.8
2014-Jul-29 17:33N 51°59' E 002°01'1411.8
2014-Jul-29 16:23N 51°51' E 002°19'1012.5
2014-Jul-29 15:33N 51°44' E 002°32'1211.7
2014-Jul-29 14:30N 51°37' E 002°47'3 3.0
2014-Jul-29 13:24N 51°34' E 002°46'4 4.0
2014-Jul-29 12:20N 51°30' E 002°43'5 6.3
2014-Jul-29 11:30N 51°30' E 002°35'4 4.1
2014-Jul-29 10:32N 51°28' E 002°41'2 1.7
2014-Jul-29 09:32N 51°26' E 002°41'3 3.5
2014-Jul-29 08:32N 51°23' E 002°42'4 4.1
2014-Jul-29 07:33N 51°20' E 002°38'1 1.4
2014-Jul-29 06:33N 51°19' E 002°37'3 3.4
2014-Jul-29 05:33N 51°21' E 002°33'4 3.9
2014-Jul-29 04:30N 51°21' E 002°27'5 4.7
2014-Jul-29 03:29N 51°19' E 002°20'4 4.8
2014-Jul-29 02:33N 51°19' E 002°13'6 5.7
2014-Jul-29 01:26N 51°22' E 002°04'5 5.1
2014-Jul-29 00:32N 51°24' E 001°58'5 5.3
2014-Jul-28 23:33N 51°28' E 001°52'7 6.7
2014-Jul-28 22:33N 51°34' E 001°48'7 7.2
2014-Jul-28 21:33N 51°41' E 001°45'7 7.3
2014-Jul-28 20:33N 51°48' E 001°43'6 5.6
2014-Jul-28 19:33N 51°49' E 001°34'3 2.9
2014-Jul-28 18:34N 51°49' E 001°29'6 6.1
2014-Jul-28 17:33N 51°45' E 001°22'1 1.0
2014-Jul-28 16:33N 51°44' E 001°21'7 7.2
2014-Jul-28 15:33N 51°47' E 001°31'5 4.7
2014-Jul-28 14:33N 51°43' E 001°29'8 8.4
2014-Jul-28 13:33N 51°36' E 001°21'6 5.5
2014-Jul-28 12:33N 51°30' E 001°21'2 1.8
2014-Jul-28 11:33N 51°29' E 001°21'1 0.8
2014-Jul-28 10:33N 51°28' E 001°21'1212.4
2014-Jul-28 09:33N 51°29' E 001°41'1 1.2
2014-Jul-28 08:33N 51°27' E 001°41'6 6.4
2014-Jul-28 07:33N 51°21' E 001°44'5 4.9
2014-Jul-28 06:33N 51°16' E 001°44'5 4.7
2014-Jul-28 05:33N 51°14' E 001°37'2 2.4
2014-Jul-28 04:33N 51°17' E 001°37'0 0.1
2014-Jul-28 03:34N 51°17' E 001°37'0 0.0
2014-Jul-28 02:33N 51°17' E 001°37'0 0.1
2014-Jul-28 01:33N 51°17' E 001°37'0 0.1
2014-Jul-28 00:33N 51°17' E 001°37'0 0.0
2014-Jul-27 23:33N 51°17' E 001°37'0 0.1
2014-Jul-27 22:34N 51°17' E 001°37'0 0.0
2014-Jul-27 21:33N 51°17' E 001°37'0 0.1
2014-Jul-27 20:33N 51°17' E 001°37'7 7.4
2014-Jul-27 19:33N 51°10' E 001°32'9 9.1
2014-Jul-27 18:33N 51°04' E 001°21'9 4.0
2014-Jul-27 16:18N 50°59' E 001°10'4 2.5
2014-Jul-27 14:33N 50°59' E 001°03'1 0.7
2014-Jul-27 13:33N 50°59' E 001°04'10 2.9
2014-Jul-27 10:07N 50°52' E 000°53'3 3.7
2014-Jul-27 09:12N 50°53' E 000°48'3 4.7
2014-Jul-27 08:33N 50°53' E 000°53'1 0.7
2014-Jul-27 07:25N 50°53' E 000°54'1 1.6
2014-Jul-27 06:33N 50°52' E 000°56'2 1.7
2014-Jul-27 05:32N 50°51' E 000°55'4 3.9
2014-Jul-27 04:32N 50°52' E 000°50'0 0.0
2014-Jul-27 03:32N 50°52' E 000°50'0 0.0
2014-Jul-27 02:32N 50°52' E 000°50'0 0.0
2014-Jul-27 01:32N 50°52' E 000°50'0 0.0
2014-Jul-27 00:32N 50°52' E 000°50'0 0.0
2014-Jul-26 23:29N 50°52' E 000°50'0 0.0
2014-Jul-26 22:32N 50°52' E 000°50'0 0.0
2014-Jul-26 21:32N 50°52' E 000°50'0 0.0
2014-Jul-26 20:32N 50°52' E 000°50'0 0.0
2014-Jul-26 19:29N 50°52' E 000°50'0 0.0
2014-Jul-26 18:32N 50°52' E 000°50'0 0.0
2014-Jul-26 17:32N 50°52' E 000°50'2 2.0
2014-Jul-26 16:33N 50°50' E 000°50'3 2.7
2014-Jul-26 15:33N 50°52' E 000°47'4 3.6
2014-Jul-26 14:33N 50°50' E 000°52'2 2.5
2014-Jul-26 13:33N 50°48' E 000°52'4 3.5
2014-Jul-26 12:33N 50°45' E 000°48'3 2.8
2014-Jul-26 11:24N 50°48' E 000°51'5 6.2
2014-Jul-26 10:33N 50°45' E 000°44'8 7.8
2014-Jul-26 09:33N 50°41' E 000°34'3 3.3
2014-Jul-26 08:33N 50°43' E 000°37'3 3.4
2014-Jul-26 07:33N 50°45' E 000°33'2 1.9
2014-Jul-26 06:33N 50°47' E 000°34'2 1.8
2014-Jul-26 05:33N 50°49' E 000°32'1 0.5
2014-Jul-26 04:33N 50°48' E 000°32'0 0.0
2014-Jul-26 03:33N 50°48' E 000°32'0 0.0
2014-Jul-26 02:33N 50°48' E 000°32'0 0.0
2014-Jul-26 01:33N 50°48' E 000°32'0 0.0
2014-Jul-26 00:33N 50°48' E 000°32'0 0.0
2014-Jul-25 23:32N 50°48' E 000°32'0 0.0
2014-Jul-25 22:33N 50°48' E 000°32'0 0.1
2014-Jul-25 21:32N 50°48' E 000°32'0 0.0
2014-Jul-25 20:32N 50°48' E 000°32'0 0.0
2014-Jul-25 19:32N 50°48' E 000°32'0 0.0
2014-Jul-25 18:32N 50°48' E 000°32'0 0.0
2014-Jul-25 17:33N 50°48' E 000°32'2 1.9
2014-Jul-25 16:34N 50°47' E 000°31'6 5.9
2014-Jul-25 15:33N 50°43' E 000°24'4 3.6
2014-Jul-25 14:33N 50°42' E 000°18'7 6.9
2014-Jul-25 13:34N 50°38' E 000°09'14 2.3
2014-Jul-25 07:17N 50°46' W 000°09'2 3.2
2014-Jul-25 06:33N 50°47' W 000°12'3 3.0
2014-Jul-25 05:30N 50°46' W 000°17'1 0.7
2014-Jul-25 04:30N 50°46' W 000°16'0 0.0
2014-Jul-25 03:30N 50°46' W 000°16'0 0.0
2014-Jul-25 02:30N 50°46' W 000°16'0 0.0
2014-Jul-25 01:33N 50°46' W 000°16'0 0.0
2014-Jul-25 00:33N 50°46' W 000°16'0 0.0
2014-Jul-24 23:33N 50°46' W 000°16'0 0.0
2014-Jul-24 22:33N 50°46' W 000°16'0 0.0
2014-Jul-24 21:33N 50°46' W 000°16'0 0.0
2014-Jul-24 20:30N 50°46' W 000°16'8 9.0
2014-Jul-24 19:33N 50°38' W 000°22'1311.2
2014-Jul-24 18:25N 50°27' W 000°31'0 0.4
2014-Jul-24 17:32N 50°27' W 000°31'1010.0
2014-Jul-24 16:29N 50°36' W 000°23'8 8.5
2014-Jul-24 15:33N 50°44' W 000°19'6 6.2
2014-Jul-24 14:33N 50°42' W 000°28'4 4.4
2014-Jul-24 13:33N 50°40' W 000°34'2 2.2
2014-Jul-24 12:33N 50°40' W 000°38'2 2.2
2014-Jul-24 11:33N 50°38' W 000°37'3 3.3
2014-Jul-24 10:33N 50°35' W 000°33'4 4.1
2014-Jul-24 09:33N 50°35' W 000°40'5 5.5
2014-Jul-24 08:33N 50°37' W 000°47'4 4.1
2014-Jul-24 07:33N 50°39' W 000°53'3 3.4
2014-Jul-24 06:33N 50°42' W 000°53'2 1.5
2014-Jul-24 05:33N 50°43' W 000°55'2 2.2
2014-Jul-24 04:33N 50°41' W 000°55'5 4.8
2014-Jul-24 03:33N 50°37' W 001°00'4 4.0
2014-Jul-24 02:33N 50°36' W 001°06'9 4.4
2014-Jul-24 00:33N 50°33' W 001°19'22 4.3
2014-Jul-23 19:33N 50°36' W 001°52'2 1.7
2014-Jul-23 18:34N 50°37' W 001°50'0 0.0
2014-Jul-23 13:33N 50°37' W 001°50'5 5.0
2014-Jul-23 12:33N 50°40' W 001°43'1 1.3
2014-Jul-23 11:32N 50°39' W 001°45'2 1.8
2014-Jul-23 10:33N 50°40' W 001°43'13 4.0
2014-Jul-23 07:24N 50°35' W 001°25'1 0.5
2014-Jul-23 06:20N 50°35' W 001°24'0 0.1
2014-Jul-23 01:11N 50°35' W 001°24'0 0.0
2014-Jul-23 00:29N 50°35' W 001°24'1 0.1
2014-Jul-22 16:33N 50°34' W 001°24'58 3.2
2014-Jul-21 22:33N 49°36' W 001°10'2 0.8
2014-Jul-21 19:25N 49°34' W 001°09'2 0.6
2014-Jul-21 15:31N 49°33' W 001°12'4 4.0
2014-Jul-21 14:34N 49°34' W 001°07'5 4.7
2014-Jul-21 13:33N 49°38' W 001°03'19 3.2
2014-Jul-21 07:34N 49°24' W 000°43'3 3.5
2014-Jul-21 06:34N 49°26' W 000°40'5 5.2
2014-Jul-21 05:33N 49°25' W 000°32'7 6.5
2014-Jul-21 04:33N 49°23' W 000°22'1 0.9
2014-Jul-21 03:18N 49°24' W 000°23'0 0.0
2014-Jul-21 02:30N 49°24' W 000°23'0 0.0
2014-Jul-21 01:30N 49°24' W 000°23'0 0.0
2014-Jul-21 00:24N 49°24' W 000°23'0 0.1
2014-Jul-20 23:30N 49°24' W 000°23'0 0.1
2014-Jul-20 22:30N 49°24' W 000°23'0 0.1
2014-Jul-20 21:30N 49°24' W 000°23'0 0.1
2014-Jul-20 20:33N 49°24' W 000°23'5 5.5
2014-Jul-20 19:33N 49°24' W 000°15'7 7.5
2014-Jul-20 18:33N 49°25' W 000°03'4 3.7
2014-Jul-20 17:33N 49°29' W 000°05'6 6.4
2014-Jul-20 16:33N 49°35' W 000°02'3 3.0
2014-Jul-20 15:33N 49°38' W 000°00'4 4.4
2014-Jul-20 14:33N 49°34' W 000°04'2 2.0
2014-Jul-20 13:33N 49°35' W 000°01'3 3.3
2014-Jul-20 12:33N 49°36' E 000°04'9 8.6
2014-Jul-20 11:33N 49°45' E 000°04'  

Dump ship's entire track history